FW9521 Weather Reports


time (UTC)temp
F
wind
direction
speed
knots
gust
knots
rain 1hr
in
rain 24hr
in
rain mn
in
humidity
%
barometer
mb
20260502152051 57 292 2.6 5.2 0.00 0.00 0.00 41 1021.3
20260502151551 57 305 0.9 2.6 0.00 0.00 0.00 42 1021.3
20260502151051 57 227 1.7 4.3 0.00 0.00 0.00 42 1021.3
20260502150551 56 287 2.6 7.0 0.00 0.00 0.00 44 1021.4
20260502130551 41 294 1.7 2.6 0.00 0.00 0.00 76 1021.3
20260502123051 38 322 0.0 0.0 0.00 0.00 0.00 80 1021.4
20260502122551 38 322 0.0 0.0 0.00 0.00 0.00 80 1021.3
20260502121552 37 322 0.9 2.6 0.00 0.00 0.00 80 1021.3
20260502120551 37 299 0.0 0.0 0.00 0.00 0.00 81 1021.2
20260502115551 37 299 0.0 1.7 0.00 0.00 0.00 81 1021.2
20260502115051 37 313 1.7 1.7 0.00 0.00 0.00 80 1021.2
20260502114552 37 307 1.7 2.6 0.00 0.00 0.00 80 1021.2
20260502114052 37 310 1.7 4.3 0.00 0.00 0.00 80 1021.2
20260502113552 37 313 1.7 2.6 0.00 0.00 0.00 80 1021.1
20260502112551 37 312 1.7 2.6 0.00 0.00 0.00 81 1021.1
20260502111552 37 342 0.0 0.9 0.00 0.00 0.00 81 1021.2
20260502110552 37 305 1.7 1.7 0.00 0.00 0.00 80 1021.1
20260502105051 37 309 0.9 1.7 0.00 0.00 0.00 81 1021.0
20260502104552 37 321 1.7 2.6 0.00 0.00 0.00 82 1021.1
20260502104051 37 325 0.0 0.0 0.00 0.00 0.00 81 1021.1
20260502103551 37 325 0.0 0.0 0.00 0.00 0.00 81 1021.1
20260502103052 37 325 0.0 0.0 0.00 0.00 0.00 80 1021.0
20260502102552 37 322 1.7 2.6 0.00 0.00 0.00 80 1021.0
20260502102051 37 268 0.0 0.0 0.00 0.00 0.00 80 1020.9
20260502101551 37 268 0.0 0.0 0.00 0.00 0.00 79 1020.8
20260502101051 38 268 0.0 0.9 0.00 0.00 0.00 79 1020.8
20260502100552 38 344 0.0 1.7 0.00 0.00 0.00 79 1020.8
20260502091052 39 350 0.0 0.0 0.00 0.00 0.00 72 1020.6
20260502090552 39 350 0.0 0.0 0.00 0.00 0.00 70 1020.5
20260502071052 41 350 0.0 0.0 0.00 0.00 0.00 64 1020.5
20260502070552 41 350 0.0 0.0 0.00 0.00 0.00 64 1020.6
20260502070052 42 350 0.0 0.0 0.00 0.00 0.00 64 1020.6
20260502065552 42 350 0.0 0.0 0.00 0.00 0.00 63 1020.6
20260502065052 42 350 0.0 0.0 0.00 0.00 0.00 63 1020.6
20260502064051 42 350 0.0 0.0 0.00 0.00 0.00 63 1020.6
20260502063552 42 350 0.0 0.0 0.00 0.00 0.00 63 1020.6
20260502063051 42 350 0.0 0.0 0.00 0.00 0.00 63 1020.6
20260502062551 42 350 0.0 0.0 0.00 0.00 0.00 63 1020.6
20260502062052 42 350 0.0 0.0 0.00 0.00 0.00 63 1020.6
20260502061052 42 350 0.0 0.0 0.00 0.00 0.00 62 1020.5
20260502060052 42 350 0.0 0.0 0.00 0.00 0.00 62 1020.5
20260502055551 42 350 0.0 0.0 0.00 0.00 0.00 61 1020.4
20260502055052 42 350 0.0 0.0 0.00 0.00 0.00 61 1020.4
20260502054553 43 350 0.0 0.0 0.00 0.00 0.00 61 1020.4
20260502054052 43 350 0.0 0.0 0.00 0.00 0.00 61 1020.3
20260502053552 43 350 0.0 0.0 0.00 0.00 0.00 60 1020.3
20260502053051 43 350 0.0 0.0 0.00 0.00 0.00 60 1020.2
20260502052552 43 350 0.0 0.0 0.00 0.00 0.00 60 1020.2
20260502052052 43 350 0.0 0.0 0.00 0.00 0.00 60 1020.2
20260502051552 43 350 0.0 0.0 0.00 0.00 0.00 60 1020.2
20260502050551 44 350 0.0 0.0 0.00 0.00 0.00 59 1020.2
20260502050052 44 350 0.0 0.0 0.00 0.00 0.00 59 1020.0
20260502045553 44 350 0.0 0.0 0.00 0.00 0.00 59 1020.0
20260502045052 44 350 0.0 0.0 0.00 0.00 0.00 59 1020.0
20260502044552 44 350 0.0 2.6 0.00 0.00 0.00 58 1020.0
20260502044052 45 353 0.9 2.6 0.00 0.00 0.00 59 1020.0
20260502043552 45 326 0.0 0.0 0.00 0.00 0.00 58 1020.0
20260502042552 45 326 0.9 2.6 0.00 0.00 0.00 58 1019.9
20260502042052 45 342 0.0 4.3 0.00 0.00 0.00 57 1019.9
20260502041552 45 358 0.9 2.6 0.00 0.00 0.00 58 1019.9
20260502041052 45 350 0.0 2.6 0.00 0.00 0.00 57 1019.8
20260502040552 46 352 0.0 0.0 0.00 0.00 0.00 57 1019.8
20260502035552 46 352 0.0 2.6 0.00 0.00 0.00 57 1019.7
20260502035052 46 344 0.9 2.6 0.00 0.00 0.00 57 1019.7
20260502034552 46 19 0.9 1.7 0.00 0.00 0.00 57 1019.7
20260502034052 46 14 0.0 0.0 0.00 0.00 0.00 56 1019.6
20260502033052 46 345 0.9 2.6 0.00 0.00 0.00 56 1019.6
20260502032552 46 356 0.9 4.3 0.00 0.00 0.00 56 1019.6
20260502032052 46 346 0.0 4.3 0.00 0.00 0.00 55 1019.5
20260502031552 46 352 0.9 2.6 0.00 0.00 0.00 55 1019.5
20260502031051 47 17 0.9 2.6 0.00 0.00 0.00 54 1019.5
20260502030552 47 355 0.0 2.6 0.00 0.00 0.00 54 1019.5
20260502030052 47 359 0.0 0.0 0.00 0.00 0.00 53 1019.4
20260502025552 47 359 0.0 1.7 0.00 0.00 0.00 52 1019.4
20260502025052 48 5 0.0 1.7 0.00 0.00 0.00 52 1019.3
20260502024552 48 352 0.9 2.6 0.00 0.00 0.00 52 1019.2
20260502024052 49 322 0.0 0.0 0.00 0.00 0.00 51 1019.1
20260502023553 49 325 0.9 2.6 0.00 0.00 0.00 50 1019.1
20260502023052 49 8 0.0 2.6 0.00 0.00 0.00 48 1019.0
20260502022552 49 6 0.9 2.6 0.00 0.00 0.00 48 1019.0
20260502022052 50 7 1.7 4.3 0.00 0.00 0.00 48 1018.9
20260502021552 50 357 1.7 4.3 0.00 0.00 0.00 48 1018.8
20260502021052 50 346 2.6 4.3 0.00 0.00 0.00 47 1018.6
20260502020052 50 349 1.7 6.1 0.00 0.00 0.00 46 1018.5
20260502015052 51 340 0.9 4.3 0.00 0.00 0.00 46 1018.3
20260502014552 52 345 0.9 4.3 0.00 0.00 0.00 44 1018.3
20260502014052 52 3 2.6 6.1 0.00 0.00 0.00 44 1018.3
20260502013552 52 348 0.9 5.2 0.00 0.00 0.00 44 1018.2
20260502013052 52 358 2.6 6.1 0.00 0.00 0.00 44 1018.2
20260502012553 52 339 1.7 4.3 0.00 0.00 0.00 44 1018.1
20260502012052 53 4 2.6 5.2 0.00 0.00 0.00 43 1018.1
20260502011552 54 6 1.7 4.3 0.00 0.00 0.00 41 1018.1
20260502011052 54 351 2.6 6.1 0.00 0.00 0.00 40 1018.1
20260502010552 54 342 4.3 7.0 0.00 0.00 0.00 38 1018.0
20260502005552 55 331 4.3 7.8 0.00 0.00 0.00 37 1017.9
20260502004553 56 349 3.5 8.7 0.00 0.00 0.00 36 1018.0
20260502003552 56 331 6.1 11.3 0.00 0.00 0.00 36 1017.7
20260502003052 56 352 7.0 11.3 0.00 0.00 0.00 35 1017.6
20260502002552 57 337 7.0 10.4 0.00 0.00 0.00 34 1017.6
20260502001553 57 350 6.1 7.8 0.00 0.00 0.00 34 1017.6
20260502000052 58 332 6.1 10.4 0.00 0.00 0.00 32 1017.5
20260501235552 58 345 6.1 7.8 0.00 0.00 0.00 32 1017.5
20260501235052 58 331 7.8 11.3 0.00 0.00 0.00 31 1017.5
20260501234553 58 321 7.0 11.3 0.00 0.00 0.00 32 1017.5
20260501234052 58 324 7.8 13.0 0.00 0.00 0.00 32 1017.5
20260501233553 59 339 6.1 7.8 0.00 0.00 0.00 32 1017.4
20260501232553 58 322 8.7 13.9 0.00 0.00 0.00 32 1017.5
20260501232053 59 331 7.8 13.0 0.00 0.00 0.00 32 1017.4
20260501231553 59 320 7.8 11.3 0.00 0.00 0.00 31 1017.4
20260501231052 59 325 4.3 7.8 0.00 0.00 0.00 30 1017.3
20260501230052 59 311 4.3 10.4 0.00 0.00 0.00 31 1017.4
20260501225553 60 325 6.1 10.4 0.00 0.00 0.00 31 1017.4
20260501225052 59 344 5.2 10.4 0.00 0.00 0.00 32 1017.4
20260501224552 59 322 7.8 12.2 0.00 0.00 0.00 31 1017.3
20260501223552 60 322 7.8 13.0 0.00 0.00 0.00 30 1017.4
20260501223053 60 328 10.4 17.4 0.00 0.00 0.00 30 1017.4
20260501222553 60 321 7.8 11.3 0.00 0.00 0.00 30 1017.4
20260501222053 60 307 4.3 8.7 0.00 0.00 0.00 30 1017.3
20260501221553 60 308 2.6 10.4 0.00 0.00 0.00 31 1017.4
20260501221052 60 347 6.1 11.3 0.00 0.00 0.00 33 1017.5
20260501220552 60 333 9.6 13.0 0.00 0.00 0.00 33 1017.4
20260501220052 60 323 2.6 7.8 0.00 0.00 0.00 33 1017.4
20260501215552 61 335 7.8 13.0 0.00 0.00 0.00 34 1017.4
20260501214553 61 330 5.2 11.3 0.00 0.00 0.00 33 1017.4
20260501214052 61 303 3.5 13.9 0.00 0.00 0.00 33 1017.4
20260501213552 61 318 3.5 7.8 0.00 0.00 0.00 34 1017.4
20260501212553 60 345 4.3 7.8 0.00 0.00 0.00 35 1017.5
20260501212052 60 340 8.7 13.0 0.00 0.00 0.00 34 1017.6
20260501211553 60 339 6.1 11.3 0.00 0.00 0.00 36 1017.5
20260501211053 61 332 5.2 8.7 0.00 0.00 0.00 35 1017.7
20260501210552 60 325 7.0 13.0 0.00 0.00 0.00 35 1017.6
20260501210053 61 327 6.1 11.3 0.00 0.00 0.00 36 1017.7
20260501205552 61 317 3.5 11.3 0.00 0.00 0.00 34 1017.7
20260501205052 61 321 6.1 10.4 0.00 0.00 0.00 36 1017.9
20260501204553 62 294 4.3 7.8 0.00 0.00 0.00 36 1017.9
20260501203553 60 321 6.1 11.3 0.00 0.00 0.00 37 1017.9
20260501203052 59 346 5.2 10.4 0.00 0.00 0.00 38 1017.9
20260501202553 60 333 7.0 10.4 0.00 0.00 0.00 36 1018.0
20260501202052 60 304 4.3 10.4 0.00 0.00 0.00 37 1018.0
20260501201052 60 320 4.3 10.4 0.00 0.00 0.00 40 1018.1
20260501200553 60 336 7.8 12.2 0.00 0.00 0.00 37 1018.1
20260501195552 61 332 3.5 10.4 0.00 0.00 0.00 41 1018.2
20260501195052 61 349 6.1 12.2 0.00 0.00 0.00 40 1018.2
20260501194552 61 325 7.8 11.3 0.00 0.00 0.00 41 1018.1
20260501194053 61 330 4.3 11.3 0.00 0.00 0.00 39 1018.1
20260501193552 60 325 7.8 11.3 0.00 0.00 0.00 39 1018.1
20260501193053 60 333 4.3 12.2 0.00 0.00 0.00 40 1018.1
20260501192553 60 346 2.6 10.4 0.00 0.00 0.00 41 1018.2
20260501192053 60 350 5.2 10.4 0.00 0.00 0.00 41 1018.1
20260501191553 60 327 4.3 10.4 0.00 0.00 0.00 43 1018.2
20260501191052 59 26 8.7 13.9 0.00 0.00 0.00 42 1018.2
20260501190553 60 346 2.6 7.0 0.00 0.00 0.00 42 1018.2
20260501185552 59 358 7.8 13.0 0.00 0.00 0.00 43 1018.3
20260501185052 60 333 4.3 8.7 0.00 0.00 0.00 43 1018.3
20260501184552 59 329 3.5 11.3 0.00 0.00 0.00 41 1018.3
20260501184052 59 315 5.2 11.3 0.00 0.00 0.00 42 1018.3
20260501183553 59 343 3.5 10.4 0.00 0.00 0.00 45 1018.3
20260501183053 59 38 3.5 7.8 0.00 0.00 0.00 46 1018.2
20260501182552 59 345 7.8 13.0 0.00 0.00 0.00 45 1018.4
20260501182052 59 332 4.3 11.3 0.00 0.00 0.00 45 1018.3
20260501181552 59 316 5.2 10.4 0.00 0.00 0.00 45 1018.3
20260501181053 58 325 7.8 14.8 0.00 0.00 0.00 44 1018.5
20260501180552 58 312 3.5 7.8 0.00 0.00 0.00 46 1018.4
20260501180053 57 315 6.1 13.9 0.00 0.00 0.00 46 1018.5
20260501175553 58 327 6.1 11.3 0.00 0.00 0.00 47 1018.5
20260501175053 58 312 5.2 13.0 0.00 0.00 0.00 44 1018.5
20260501174553 58 317 7.0 13.9 0.00 0.00 0.00 49 1018.6
20260501174052 58 316 5.2 13.9 0.00 0.00 0.00 46 1018.6
20260501173053 58 321 5.2 12.2 0.00 0.00 0.00 46 1018.7
20260501172553 58 325 5.2 10.4 0.00 0.00 0.00 47 1018.6
20260501172052 57 323 7.8 13.0 0.00 0.00 0.00 48 1018.7
20260501171053 58 334 7.0 13.0 0.00 0.00 0.00 48 1018.6
20260501170553 57 342 5.2 13.0 0.00 0.00 0.00 50 1018.6
20260501170053 57 329 7.8 12.2 0.00 0.00 0.00 49 1018.7
20260501165553 57 336 4.3 8.7 0.00 0.00 0.00 51 1018.6
20260501165052 57 331 5.2 12.2 0.00 0.00 0.00 50 1018.6
20260501164553 57 340 5.2 11.3 0.00 0.00 0.00 51 1018.6
20260501164052 57 322 8.7 12.2 0.00 0.00 0.00 51 1018.6
20260501163552 56 326 8.7 12.2 0.00 0.00 0.00 50 1018.5
20260501163053 56 324 7.0 11.3 0.00 0.00 0.00 51 1018.5
20260501162553 56 318 7.0 12.2 0.00 0.00 0.00 50 1018.5
20260501162052 56 324 8.7 12.2 0.00 0.00 0.00 51 1018.4
20260501161553 56 314 4.3 12.2 0.00 0.00 0.00 50 1018.4
20260501161053 56 314 7.8 12.2 0.00 0.00 0.00 50 1018.4
20260501160052 56 329 8.7 12.2 0.00 0.00 0.00 51 1018.4
20260501155553 56 323 7.8 13.0 0.00 0.00 0.00 52 1018.4
20260501155053 56 316 10.4 13.9 0.00 0.00 0.00 49 1018.3
20260501154553 56 308 5.2 10.4 0.00 0.00 0.00 50 1018.3
20260501154052 56 321 6.1 10.4 0.00 0.00 0.00 52 1018.2